createdAt,value
2017-07-04T00:01:43.211Z,69.60
2017-07-04T00:04:12.567Z,70.30
2017-07-04T00:06:40.890Z,69.10
2017-07-04T00:09:09.187Z,69.70
2017-07-04T00:11:37.483Z,70.00
2017-07-04T00:14:05.785Z,71.00
2017-07-04T00:16:34.100Z,70.00
2017-07-04T00:19:02.421Z,70.40
2017-07-04T00:21:30.694Z,71.90
2017-07-04T00:23:59.085Z,72.70
2017-07-04T00:26:27.367Z,72.50
2017-07-04T00:28:55.689Z,72.70
2017-07-04T00:31:23.960Z,73.10
2017-07-04T00:33:53.171Z,73.70
2017-07-04T00:36:21.485Z,74.30
2017-07-04T00:38:50.806Z,75.00
2017-07-04T00:41:19.082Z,75.00
2017-07-04T00:43:51.251Z,75.60
2017-07-04T00:46:19.531Z,76.10
2017-07-04T00:48:47.808Z,76.40
2017-07-04T00:51:16.141Z,76.80
2017-07-04T00:53:44.417Z,77.60
2017-07-04T00:56:11.925Z,77.60
2017-07-04T00:58:43.967Z,78.10
2017-07-04T01:01:12.242Z,78.20
2017-07-04T01:03:40.561Z,78.70
2017-07-04T01:06:08.840Z,78.70
2017-07-04T01:08:37.115Z,78.90
2017-07-04T01:11:05.421Z,79.30
2017-07-04T01:13:33.793Z,79.50
2017-07-04T01:16:02.116Z,80.80
2017-07-04T01:18:31.449Z,81.50
2017-07-04T01:20:59.721Z,81.30
2017-07-04T01:23:28.034Z,81.80
2017-07-04T01:25:56.305Z,81.90
2017-07-04T01:28:24.577Z,82.10
2017-07-04T01:30:52.880Z,82.20
2017-07-04T01:33:21.209Z,82.30
2017-07-04T01:35:49.472Z,82.50
2017-07-04T01:38:18.721Z,82.40
2017-07-04T01:40:47.000Z,81.90
2017-07-04T01:43:15.330Z,81.80
2017-07-04T01:45:43.633Z,82.50
2017-07-04T01:48:12.943Z,82.40
2017-07-04T01:50:41.253Z,82.30
2017-07-04T01:53:09.570Z,82.10
2017-07-04T01:55:37.884Z,82.20
2017-07-04T01:58:06.152Z,82.10
2017-07-04T02:00:34.458Z,82.20
2017-07-04T02:03:04.716Z,82.60
2017-07-04T02:05:33.021Z,82.30
2017-07-04T02:08:01.284Z,82.30
2017-07-04T02:10:29.549Z,81.90
2017-07-04T02:12:57.848Z,81.90
2017-07-04T02:15:26.124Z,81.80
2017-07-04T02:17:54.433Z,81.50
2017-07-04T02:20:22.709Z,81.40
2017-07-04T02:22:50.995Z,81.90
2017-07-04T02:25:19.270Z,81.00
2017-07-04T02:27:47.617Z,81.20
2017-07-04T02:30:15.898Z,80.70
2017-07-04T02:32:45.184Z,81.40
2017-07-04T02:35:13.448Z,80.40
2017-07-04T02:37:41.860Z,80.50
2017-07-04T02:40:10.130Z,80.80
2017-07-04T02:42:38.401Z,80.60
2017-07-04T02:45:06.696Z,80.60
2017-07-04T02:47:35.024Z,81.00
2017-07-04T02:50:03.321Z,81.20
2017-07-04T02:52:31.675Z,81.40
2017-07-04T02:55:00.009Z,81.40
2017-07-04T02:57:28.290Z,81.40
2017-07-04T02:59:56.567Z,81.60
2017-07-04T03:02:24.875Z,81.20
2017-07-04T03:04:53.154Z,82.20
2017-07-04T03:07:21.465Z,81.80
2017-07-04T03:09:49.752Z,81.30
2017-07-04T03:12:18.098Z,81.60
2017-07-04T03:14:46.378Z,81.90
2017-07-04T03:17:14.656Z,82.00
2017-07-04T03:19:42.203Z,82.00
2017-07-04T03:22:10.481Z,82.00
2017-07-04T03:24:38.793Z,81.80
2017-07-04T03:27:07.190Z,82.60
2017-07-04T03:29:35.494Z,82.90
2017-07-04T03:32:03.770Z,82.00
2017-07-04T03:34:33.135Z,82.50
2017-07-04T03:37:01.410Z,82.20
2017-07-04T03:39:28.961Z,82.20
2017-07-04T03:41:57.243Z,82.30
2017-07-04T03:44:25.562Z,82.40
2017-07-04T03:46:53.832Z,82.60
2017-07-04T03:49:22.140Z,82.90
2017-07-04T03:51:50.432Z,82.70
2017-07-04T03:54:18.716Z,82.60
2017-07-04T03:56:47.035Z,82.80
2017-07-04T03:59:15.313Z,83.10
2017-07-04T04:01:43.596Z,82.70
2017-07-04T04:04:11.905Z,83.20
2017-07-04T04:06:40.184Z,83.40
2017-07-04T04:09:08.503Z,83.50
2017-07-04T04:11:36.772Z,83.40
2017-07-04T04:14:05.046Z,83.50
2017-07-04T04:16:33.366Z,83.50
2017-07-04T04:19:03.620Z,84.70
2017-07-04T04:21:31.923Z,84.00
2017-07-04T04:24:01.182Z,84.10
2017-07-04T04:26:29.472Z,84.30
2017-07-04T04:28:58.760Z,84.90
2017-07-04T04:31:27.065Z,84.70
2017-07-04T04:33:55.338Z,85.10
2017-07-04T04:36:23.624Z,85.20
2017-07-04T04:38:51.932Z,85.20
2017-07-04T04:41:20.212Z,85.50
2017-07-04T04:43:48.553Z,85.60
2017-07-04T04:46:16.830Z,85.50
2017-07-04T04:48:45.126Z,85.60
2017-07-04T04:51:13.411Z,86.00
2017-07-04T04:53:42.790Z,86.30
2017-07-04T04:56:11.066Z,85.80
2017-07-04T04:58:40.466Z,85.30
2017-07-04T05:01:08.749Z,85.70
2017-07-04T05:03:37.027Z,85.60
2017-07-04T05:06:05.346Z,86.10
2017-07-04T05:08:33.636Z,86.60
2017-07-04T05:11:01.961Z,86.40
2017-07-04T05:13:30.271Z,86.50
2017-07-04T05:15:58.547Z,86.90
2017-07-04T05:18:26.841Z,87.50
2017-07-04T05:20:55.121Z,86.60
2017-07-04T05:23:23.420Z,87.40
2017-07-04T05:25:52.728Z,87.30
2017-07-04T05:28:21.010Z,87.00
2017-07-04T05:30:49.316Z,86.40
2017-07-04T05:33:23.173Z,86.70
2017-07-04T05:35:51.481Z,86.40
2017-07-04T05:38:20.745Z,86.50
2017-07-04T05:40:49.044Z,86.20
2017-07-04T05:43:17.395Z,87.20
2017-07-04T05:45:44.936Z,87.20
2017-07-04T05:48:13.242Z,87.30
2017-07-04T05:50:42.541Z,86.90
2017-07-04T05:53:10.838Z,86.90
2017-07-04T05:55:39.120Z,87.00
2017-07-04T05:58:07.449Z,86.90
2017-07-04T06:00:35.731Z,86.50
2017-07-04T06:03:04.020Z,86.70
2017-07-04T06:05:32.345Z,86.80
2017-07-04T06:08:00.855Z,87.50
2017-07-04T06:10:29.205Z,87.80
2017-07-04T06:12:57.523Z,87.00
2017-07-04T06:15:25.855Z,86.60
2017-07-04T06:17:54.182Z,87.20
2017-07-04T06:20:22.488Z,86.50
2017-07-04T06:22:50.842Z,87.90
2017-07-04T06:25:19.152Z,87.80
2017-07-04T06:27:47.490Z,87.50
2017-07-04T06:30:15.917Z,87.60
2017-07-04T06:32:44.233Z,87.40
2017-07-04T06:35:12.527Z,87.70
2017-07-04T06:37:40.858Z,88.10
2017-07-04T06:40:09.157Z,87.80
2017-07-04T06:42:37.488Z,88.00
2017-07-04T06:45:05.766Z,88.10
2017-07-04T06:47:34.125Z,87.40
2017-07-04T06:50:02.874Z,87.30
2017-07-04T06:52:31.176Z,87.50
2017-07-04T06:54:59.496Z,88.50
2017-07-04T06:57:27.784Z,88.00
2017-07-04T06:59:56.092Z,88.30
2017-07-04T07:02:24.384Z,88.80
2017-07-04T07:04:52.664Z,88.20
2017-07-04T07:07:20.980Z,87.80
2017-07-04T07:09:49.253Z,86.60
2017-07-04T07:12:17.586Z,87.80
2017-07-04T07:14:45.142Z,87.80
2017-07-04T07:17:13.414Z,86.90
2017-07-04T07:19:41.776Z,86.80
2017-07-04T07:22:10.053Z,86.70
2017-07-04T07:24:38.371Z,86.70
2017-07-04T07:27:06.689Z,86.10
2017-07-04T07:29:34.965Z,86.00
2017-07-04T07:32:03.253Z,86.70
2017-07-04T07:34:31.567Z,86.30
2017-07-04T07:36:59.925Z,86.00
2017-07-04T07:39:28.201Z,86.60
2017-07-04T07:41:56.470Z,85.80
2017-07-04T07:44:24.774Z,86.20
2017-07-04T07:46:53.058Z,85.70
2017-07-04T07:49:21.373Z,86.30
2017-07-04T07:51:49.658Z,86.50
2017-07-04T07:54:17.955Z,86.60
2017-07-04T07:56:45.509Z,86.60
2017-07-04T07:59:13.794Z,85.80
2017-07-04T08:01:42.072Z,85.40
2017-07-04T08:04:10.376Z,85.90
2017-07-04T08:06:38.689Z,86.10
2017-07-04T08:09:06.966Z,86.30
2017-07-04T08:11:35.237Z,86.20
2017-07-04T08:14:03.584Z,84.30
2017-07-04T08:16:31.981Z,84.10
2017-07-04T08:19:00.344Z,83.80
2017-07-04T08:21:28.670Z,84.00
2017-07-04T08:23:57.449Z,84.10
2017-07-04T08:26:25.736Z,83.50
2017-07-04T08:28:54.011Z,83.70
2017-07-04T08:31:22.327Z,81.80
2017-07-04T08:33:50.600Z,82.30
2017-07-04T08:36:18.917Z,81.90
2017-07-04T08:38:47.201Z,82.10
2017-07-04T08:41:15.500Z,81.50
2017-07-04T08:43:44.188Z,81.70
2017-07-04T08:46:12.462Z,80.80
2017-07-04T08:48:40.755Z,81.60
2017-07-04T08:51:09.062Z,79.80
2017-07-04T08:53:37.381Z,81.50
2017-07-04T08:56:05.658Z,80.20
2017-07-04T08:58:33.978Z,80.40
2017-07-04T09:01:02.260Z,80.30
2017-07-04T09:03:30.551Z,81.20
2017-07-04T09:05:58.856Z,80.40
2017-07-04T09:08:27.129Z,80.80
2017-07-04T09:10:55.452Z,79.30
2017-07-04T09:13:23.729Z,79.10
2017-07-04T09:15:52.016Z,78.70
2017-07-04T09:18:20.323Z,76.70
2017-07-04T09:20:47.877Z,76.60
2017-07-04T09:23:16.161Z,77.90
2017-07-04T09:25:44.442Z,76.60
2017-07-04T09:28:12.761Z,77.10
2017-07-04T09:30:41.049Z,76.90
2017-07-04T09:33:09.365Z,77.50
2017-07-04T09:35:37.676Z,76.90
2017-07-04T09:38:05.958Z,78.40
2017-07-04T09:40:34.273Z,77.50
2017-07-04T09:43:02.570Z,76.40
2017-07-04T09:45:30.843Z,76.90
2017-07-04T09:47:59.167Z,76.30
2017-07-04T09:50:27.499Z,75.40
2017-07-04T09:52:55.783Z,74.50
2017-07-04T09:55:24.070Z,74.30
2017-07-04T09:57:52.401Z,74.30
2017-07-04T10:00:20.684Z,74.70
2017-07-04T10:02:48.965Z,72.90
2017-07-04T10:05:17.305Z,71.20
2017-07-04T10:07:45.591Z,72.00
2017-07-04T10:10:13.875Z,71.80
2017-07-04T10:12:42.200Z,71.30
2017-07-04T10:15:10.473Z,70.50
2017-07-04T10:17:38.803Z,71.00
2017-07-04T10:20:07.086Z,70.70
2017-07-04T10:22:35.368Z,71.10
2017-07-04T10:25:03.685Z,70.80
2017-07-04T10:27:32.000Z,68.20
2017-07-04T10:30:00.281Z,70.10
2017-07-04T10:32:28.560Z,71.50
2017-07-04T10:34:56.891Z,70.50
2017-07-04T10:37:25.187Z,67.40
2017-07-04T10:39:53.479Z,67.90
2017-07-04T10:42:21.788Z,67.30
2017-07-04T10:44:50.108Z,69.40
2017-07-04T10:47:18.390Z,68.50
2017-07-04T10:49:46.672Z,66.00
2017-07-04T10:52:14.972Z,64.40
2017-07-04T10:54:43.254Z,64.90
2017-07-04T10:57:11.602Z,65.20
2017-07-04T10:59:39.116Z,65.20
2017-07-04T11:02:07.415Z,63.50
2017-07-04T11:04:35.720Z,64.80
2017-07-04T11:07:04.000Z,59.90
2017-07-04T11:09:32.315Z,60.00
2017-07-04T11:12:00.593Z,60.20
2017-07-04T11:14:28.929Z,62.10
2017-07-04T11:16:57.204Z,61.90
2017-07-04T11:19:24.713Z,61.70
2017-07-04T11:21:56.180Z,59.10
2017-07-04T11:24:25.566Z,59.90
2017-07-04T11:26:53.845Z,59.40
2017-07-04T11:29:22.174Z,59.10
2017-07-04T11:31:50.445Z,59.50
2017-07-04T11:34:17.958Z,58.90
2017-07-04T11:36:45.484Z,58.30
2017-07-04T11:39:13.759Z,57.80
2017-07-04T11:41:42.094Z,57.90
2017-07-04T11:44:10.369Z,59.30
2017-07-04T11:46:38.651Z,58.70
2017-07-04T11:49:06.969Z,58.70
2017-07-04T11:51:35.262Z,59.50
2017-07-04T11:54:03.561Z,58.80
2017-07-04T11:56:31.845Z,59.90
2017-07-04T11:59:00.158Z,59.80
2017-07-04T12:01:28.428Z,58.50
2017-07-04T12:03:56.709Z,56.30
2017-07-04T12:06:25.026Z,56.80
2017-07-04T12:08:53.310Z,57.40
2017-07-04T12:11:21.588Z,57.60
2017-07-04T12:13:49.905Z,57.90
2017-07-04T12:16:18.180Z,59.10
2017-07-04T12:18:46.471Z,58.10
2017-07-04T12:21:15.481Z,58.30
2017-07-04T12:23:43.754Z,57.90
2017-07-04T12:26:11.258Z,57.90
2017-07-04T12:28:39.556Z,56.70
2017-07-04T12:31:07.843Z,57.60
2017-07-04T12:33:36.164Z,57.30
2017-07-04T12:36:04.446Z,57.40
2017-07-04T12:38:32.777Z,63.70
2017-07-04T12:41:01.069Z,65.70
2017-07-04T12:43:29.345Z,66.40
2017-07-04T12:45:57.654Z,67.70
2017-07-04T12:48:25.938Z,67.10
2017-07-04T12:50:54.248Z,66.20
2017-07-04T12:53:22.579Z,66.80
2017-07-04T12:55:50.866Z,67.40
2017-07-04T12:58:19.155Z,68.60
2017-07-04T13:00:47.485Z,69.40
2017-07-04T13:03:15.768Z,70.50
2017-07-04T13:05:44.041Z,70.80
2017-07-04T13:08:12.348Z,70.20
2017-07-04T13:10:40.629Z,69.50
2017-07-04T13:13:08.954Z,69.10
2017-07-04T13:15:37.245Z,69.70
2017-07-04T13:18:04.772Z,69.70
2017-07-04T13:20:33.081Z,68.10
2017-07-04T13:23:01.358Z,67.80
2017-07-04T13:25:29.692Z,66.60
2017-07-04T13:27:57.206Z,66.60
2017-07-04T13:30:25.481Z,68.40
2017-07-04T13:32:53.801Z,67.00
2017-07-04T13:35:22.081Z,68.60
2017-07-04T13:37:50.355Z,66.60
2017-07-04T13:40:18.671Z,67.30
2017-07-04T13:42:46.950Z,65.80
2017-07-04T13:45:15.257Z,65.20
2017-07-04T13:47:43.534Z,65.60
2017-07-04T13:50:11.818Z,64.50
2017-07-04T13:52:40.254Z,65.80
2017-07-04T13:55:08.534Z,65.60
2017-07-04T13:57:36.827Z,66.40
2017-07-04T14:00:05.149Z,66.30
2017-07-04T14:02:33.458Z,67.20
2017-07-04T14:05:01.776Z,66.90
2017-07-04T14:07:30.055Z,66.80
2017-07-04T14:09:58.340Z,65.30
2017-07-04T14:12:26.673Z,64.80
2017-07-04T14:14:54.954Z,65.30
2017-07-04T14:17:23.237Z,67.10
2017-07-04T14:19:51.557Z,65.20
2017-07-04T14:22:19.835Z,65.70
2017-07-04T14:24:48.130Z,66.70
2017-07-04T14:27:16.437Z,66.40
2017-07-04T14:29:44.777Z,67.20
2017-07-04T14:32:13.061Z,65.00
2017-07-04T14:34:41.361Z,63.90
2017-07-04T14:37:09.689Z,64.80
2017-07-04T14:39:37.981Z,64.30
2017-07-04T14:42:07.205Z,65.00
2017-07-04T14:44:35.513Z,65.10
2017-07-04T14:47:03.798Z,67.20
2017-07-04T14:49:32.110Z,64.60
2017-07-04T14:52:00.385Z,65.40
2017-07-04T14:54:27.896Z,65.20
2017-07-04T14:56:56.201Z,64.20
2017-07-04T14:59:24.474Z,65.20
2017-07-04T15:01:52.798Z,62.90
2017-07-04T15:04:21.077Z,63.60
2017-07-04T15:06:49.363Z,65.20
2017-07-04T15:09:17.694Z,64.00
2017-07-04T15:11:45.970Z,63.30
2017-07-04T15:14:14.278Z,64.20
2017-07-04T15:16:42.549Z,61.70
2017-07-04T15:19:10.851Z,63.60
2017-07-04T15:21:39.144Z,61.60
2017-07-04T15:24:07.459Z,61.70
2017-07-04T15:26:35.742Z,61.20
2017-07-04T15:29:04.019Z,61.40
2017-07-04T15:31:32.328Z,61.70
2017-07-04T15:34:00.612Z,59.20
2017-07-04T15:36:28.907Z,60.80
2017-07-04T15:38:57.182Z,59.80
2017-07-04T15:41:26.489Z,58.70
2017-07-04T15:43:54.772Z,58.90
2017-07-04T15:46:23.081Z,58.20
2017-07-04T15:48:51.385Z,57.40
2017-07-04T15:51:19.672Z,58.40
2017-07-04T15:53:47.972Z,58.40
2017-07-04T15:56:16.239Z,58.30
2017-07-04T15:58:44.549Z,58.10
2017-07-04T16:01:13.786Z,58.60
2017-07-04T16:03:42.100Z,58.40
2017-07-04T16:06:10.381Z,58.00
2017-07-04T16:08:38.686Z,58.70
2017-07-04T16:11:06.999Z,57.10
2017-07-04T16:13:35.296Z,57.70
2017-07-04T16:16:03.588Z,59.10
2017-07-04T16:18:31.854Z,59.70
2017-07-04T16:21:00.174Z,59.80
2017-07-04T16:23:28.452Z,58.20
2017-07-04T16:25:56.727Z,57.80
2017-07-04T16:28:25.016Z,58.10
2017-07-04T16:30:52.553Z,58.10
2017-07-04T16:33:21.789Z,59.50
2017-07-04T16:35:50.101Z,57.30
2017-07-04T16:38:18.378Z,57.20
2017-07-04T16:40:46.653Z,57.70
2017-07-04T16:43:14.949Z,57.30
2017-07-04T16:45:43.217Z,56.80
2017-07-04T16:48:11.517Z,57.00
2017-07-04T16:50:39.908Z,57.00
2017-07-04T16:53:08.205Z,58.60
2017-07-04T16:55:36.477Z,58.60
2017-07-04T16:58:04.021Z,58.60
2017-07-04T17:00:32.321Z,57.70
2017-07-04T17:03:00.623Z,58.20
2017-07-04T17:05:28.943Z,57.80
2017-07-04T17:07:57.221Z,57.10
2017-07-04T17:10:25.499Z,56.70
2017-07-04T17:12:53.808Z,56.70
2017-07-04T17:15:22.088Z,57.00
2017-07-04T17:17:50.390Z,57.50
2017-07-04T17:20:18.674Z,58.50
2017-07-04T17:22:46.974Z,59.00
2017-07-04T17:25:15.257Z,58.40
2017-07-04T17:27:43.571Z,58.50
2017-07-04T17:30:11.848Z,58.60
2017-07-04T17:32:40.144Z,59.30
2017-07-04T17:35:08.439Z,60.40
2017-07-04T17:37:36.737Z,59.20
2017-07-04T17:40:05.012Z,59.20
2017-07-04T17:42:33.316Z,58.60
2017-07-04T17:45:00.863Z,58.60
2017-07-04T17:47:29.162Z,59.50
2017-07-04T17:49:57.477Z,59.20
2017-07-04T17:52:25.766Z,58.50
2017-07-04T17:54:54.074Z,59.20
2017-07-04T17:57:22.366Z,59.20
2017-07-04T17:59:50.667Z,59.40
2017-07-04T18:02:18.953Z,59.80
2017-07-04T18:04:47.278Z,59.20
2017-07-04T18:07:15.554Z,60.20
2017-07-04T18:09:43.838Z,61.80
2017-07-04T18:12:12.145Z,60.90
2017-07-04T18:14:40.420Z,61.80
2017-07-04T18:17:08.734Z,62.40
2017-07-04T18:19:37.038Z,62.20
2017-07-04T18:22:06.249Z,64.70
2017-07-04T18:24:34.553Z,64.10
2017-07-04T18:27:02.845Z,64.80
2017-07-04T18:29:31.150Z,66.50
2017-07-04T18:31:59.465Z,66.50
2017-07-04T18:34:27.803Z,66.90
2017-07-04T18:36:56.093Z,65.40
2017-07-04T18:39:24.385Z,67.60
2017-07-04T18:41:52.702Z,69.40
2017-07-04T18:44:20.985Z,70.30
2017-07-04T18:46:49.287Z,71.60
2017-07-04T18:49:17.565Z,70.40
2017-07-04T18:51:45.863Z,73.70
2017-07-04T18:54:14.155Z,70.80
2017-07-04T18:56:42.473Z,71.50
2017-07-04T18:59:10.753Z,71.80
2017-07-04T19:01:39.029Z,72.00
2017-07-04T19:04:07.346Z,72.00
2017-07-04T19:06:35.633Z,71.90
2017-07-04T19:09:03.949Z,70.90
2017-07-04T19:11:32.232Z,71.60
2017-07-04T19:14:00.553Z,72.50
2017-07-04T19:16:28.838Z,73.10
2017-07-04T19:18:57.161Z,73.90
2017-07-04T19:21:25.445Z,72.90
2017-07-04T19:23:53.733Z,73.20
2017-07-04T19:26:22.059Z,72.60
2017-07-04T19:28:50.359Z,73.10
2017-07-04T19:31:18.670Z,73.80
2017-07-04T19:33:46.950Z,74.70
2017-07-04T19:36:15.273Z,75.90
2017-07-04T19:38:43.553Z,75.10
2017-07-04T19:41:11.829Z,76.30
2017-07-04T19:43:40.143Z,77.70
2017-07-04T19:46:08.413Z,76.90
2017-07-04T19:48:36.722Z,77.00
2017-07-04T19:51:05.001Z,76.40
2017-07-04T19:53:33.307Z,76.20
2017-07-04T19:56:01.588Z,77.50
2017-07-04T19:58:29.911Z,77.10
2017-07-04T20:00:58.192Z,76.80
2017-07-04T20:03:26.479Z,77.10
2017-07-04T20:05:54.811Z,78.10
2017-07-04T20:08:23.109Z,78.30
2017-07-04T20:10:51.430Z,78.30
2017-07-04T20:13:19.710Z,77.30
2017-07-04T20:15:47.993Z,77.00
2017-07-04T20:18:16.305Z,77.70
2017-07-04T20:20:44.593Z,80.00
2017-07-04T20:23:12.904Z,80.40
2017-07-04T20:25:41.213Z,81.30
2017-07-04T20:28:09.514Z,79.40
2017-07-04T20:30:37.829Z,79.70
2017-07-04T20:33:06.167Z,79.90
2017-07-04T20:35:34.486Z,80.90
2017-07-04T20:38:01.985Z,80.90
2017-07-04T20:40:30.302Z,82.10
2017-07-04T20:42:58.618Z,82.20
2017-07-04T20:45:26.896Z,82.00
2017-07-04T20:47:55.171Z,81.00
2017-07-04T20:50:23.481Z,81.50
2017-07-04T20:52:51.758Z,80.90
2017-07-04T20:55:20.057Z,80.70
2017-07-04T20:57:48.343Z,79.90
2017-07-04T21:00:16.658Z,80.90
2017-07-04T21:02:44.948Z,81.50
2017-07-04T21:05:13.238Z,82.00
2017-07-04T21:07:41.551Z,81.80
2017-07-04T21:10:09.833Z,81.90
2017-07-04T21:12:38.105Z,82.20
2017-07-04T21:15:06.393Z,82.70
2017-07-04T21:17:34.698Z,82.20
2017-07-04T21:20:03.018Z,83.10
2017-07-04T21:22:31.296Z,83.50
2017-07-04T21:24:59.573Z,82.80
2017-07-04T21:27:27.891Z,82.00
2017-07-04T21:29:56.171Z,82.50
2017-07-04T21:32:24.462Z,83.40
2017-07-04T21:34:52.789Z,83.90
2017-07-04T21:37:21.070Z,82.30
2017-07-04T21:39:49.344Z,81.90
2017-07-04T21:42:17.644Z,82.60
2017-07-04T21:44:45.925Z,80.30
2017-07-04T21:47:14.238Z,81.40
2017-07-04T21:49:42.524Z,82.90
2017-07-04T21:52:10.830Z,83.00
2017-07-04T21:54:39.106Z,82.80
2017-07-04T21:57:07.413Z,83.40
2017-07-04T21:59:35.706Z,84.10
2017-07-04T22:02:04.006Z,83.00
2017-07-04T22:04:32.273Z,82.70
2017-07-04T22:07:00.581Z,83.40
2017-07-04T22:09:28.856Z,84.00
2017-07-04T22:11:57.125Z,83.50
2017-07-04T22:14:25.438Z,83.70
2017-07-04T22:16:53.708Z,84.20
2017-07-04T22:19:22.020Z,84.30
2017-07-04T22:21:50.306Z,82.60
2017-07-04T22:24:18.576Z,83.10
2017-07-04T22:26:46.882Z,83.70
2017-07-04T22:29:15.157Z,84.70
2017-07-04T22:31:43.465Z,84.60
2017-07-04T22:34:11.766Z,84.60
2017-07-04T22:36:40.070Z,84.40
2017-07-04T22:39:08.358Z,84.30
2017-07-04T22:41:36.630Z,84.50
2017-07-04T22:44:04.941Z,84.80
2017-07-04T22:46:33.219Z,85.20
2017-07-04T22:49:01.506Z,84.50
2017-07-04T22:51:29.807Z,85.40
2017-07-04T22:53:58.089Z,85.40
2017-07-04T22:56:26.393Z,85.20
2017-07-04T22:58:54.667Z,84.70
2017-07-04T23:01:22.975Z,85.70
2017-07-04T23:03:51.244Z,86.20
2017-07-04T23:06:19.561Z,86.40
2017-07-04T23:08:47.840Z,87.20
2017-07-04T23:11:16.148Z,86.60
2017-07-04T23:13:44.421Z,86.40
2017-07-04T23:16:12.734Z,87.30
2017-07-04T23:18:41.014Z,87.50
2017-07-04T23:21:10.237Z,87.00
2017-07-04T23:23:38.537Z,86.80
2017-07-04T23:26:06.818Z,86.90
2017-07-04T23:28:35.118Z,87.20
2017-07-04T23:31:03.393Z,87.20
2017-07-04T23:33:31.701Z,86.80
2017-07-04T23:35:59.979Z,86.80
2017-07-04T23:38:28.249Z,87.20
2017-07-04T23:40:56.548Z,87.00
2017-07-04T23:43:24.848Z,87.10
2017-07-04T23:45:53.124Z,87.30
2017-07-04T23:48:21.434Z,86.90
2017-07-04T23:50:49.705Z,88.10
2017-07-04T23:53:18.015Z,87.70
2017-07-04T23:55:46.297Z,87.60
2017-07-04T23:58:14.593Z,87.30
